sensor_id;sensor_type;location;lat;lon;timestamp;P1;durP1;ratioP1;P2;durP2;ratioP2
22064;SDS011;11197;53.110;8.468;2023-06-22T00:00:52;14.60;;;13.10;;
22064;SDS011;11197;53.110;8.468;2023-06-22T00:03:19;16.65;;;14.85;;
22064;SDS011;11197;53.110;8.468;2023-06-22T00:05:46;17.15;;;14.13;;
22064;SDS011;11197;53.110;8.468;2023-06-22T00:08:12;15.68;;;13.65;;
22064;SDS011;11197;53.110;8.468;2023-06-22T00:10:38;16.05;;;14.32;;
22064;SDS011;11197;53.110;8.468;2023-06-22T00:13:04;16.27;;;14.15;;
22064;SDS011;11197;53.110;8.468;2023-06-22T00:15:31;15.68;;;13.75;;
22064;SDS011;11197;53.110;8.468;2023-06-22T00:17:56;15.70;;;14.00;;
22064;SDS011;11197;53.110;8.468;2023-06-22T00:20:23;17.05;;;14.73;;
22064;SDS011;11197;53.110;8.468;2023-06-22T00:22:53;17.27;;;15.27;;
22064;SDS011;11197;53.110;8.468;2023-06-22T00:25:19;15.68;;;13.60;;
22064;SDS011;11197;53.110;8.468;2023-06-22T00:27:45;15.85;;;14.02;;
22064;SDS011;11197;53.110;8.468;2023-06-22T00:30:11;15.68;;;14.07;;
22064;SDS011;11197;53.110;8.468;2023-06-22T00:32:37;16.88;;;15.18;;
22064;SDS011;11197;53.110;8.468;2023-06-22T00:35:02;15.93;;;14.23;;
22064;SDS011;11197;53.110;8.468;2023-06-22T00:37:28;17.13;;;15.30;;
22064;SDS011;11197;53.110;8.468;2023-06-22T00:39:55;13.35;;;11.80;;
22064;SDS011;11197;53.110;8.468;2023-06-22T00:42:21;15.45;;;12.95;;
22064;SDS011;11197;53.110;8.468;2023-06-22T00:44:46;16.65;;;14.88;;
22064;SDS011;11197;53.110;8.468;2023-06-22T00:47:16;16.10;;;13.88;;
22064;SDS011;11197;53.110;8.468;2023-06-22T00:49:43;15.00;;;13.43;;
22064;SDS011;11197;53.110;8.468;2023-06-22T00:52:10;15.68;;;13.95;;
22064;SDS011;11197;53.110;8.468;2023-06-22T00:54:40;18.92;;;16.58;;
22064;SDS011;11197;53.110;8.468;2023-06-22T00:57:13;18.27;;;15.35;;
22064;SDS011;11197;53.110;8.468;2023-06-22T01:02:08;17.77;;;15.32;;
22064;SDS011;11197;53.110;8.468;2023-06-22T01:04:35;18.20;;;16.02;;
22064;SDS011;11197;53.110;8.468;2023-06-22T01:07:04;19.02;;;17.02;;
22064;SDS011;11197;53.110;8.468;2023-06-22T01:09:50;19.08;;;16.77;;
22064;SDS011;11197;53.110;8.468;2023-06-22T01:12:24;15.93;;;14.23;;
22064;SDS011;11197;53.110;8.468;2023-06-22T01:14:55;15.90;;;14.20;;
22064;SDS011;11197;53.110;8.468;2023-06-22T01:17:29;17.80;;;16.00;;
22064;SDS011;11197;53.110;8.468;2023-06-22T01:19:57;16.73;;;14.93;;
22064;SDS011;11197;53.110;8.468;2023-06-22T01:22:26;17.70;;;15.55;;
22064;SDS011;11197;53.110;8.468;2023-06-22T01:28:01;17.42;;;15.38;;
22064;SDS011;11197;53.110;8.468;2023-06-22T01:30:42;20.52;;;17.40;;
22064;SDS011;11197;53.110;8.468;2023-06-22T01:33:10;19.55;;;16.98;;
22064;SDS011;11197;53.110;8.468;2023-06-22T01:35:38;18.98;;;16.10;;
22064;SDS011;11197;53.110;8.468;2023-06-22T01:38:05;21.10;;;18.52;;
22064;SDS011;11197;53.110;8.468;2023-06-22T01:40:32;20.17;;;17.33;;
22064;SDS011;11197;53.110;8.468;2023-06-22T01:43:00;19.05;;;17.02;;
22064;SDS011;11197;53.110;8.468;2023-06-22T01:45:27;21.55;;;19.30;;
22064;SDS011;11197;53.110;8.468;2023-06-22T01:47:53;21.08;;;18.80;;
22064;SDS011;11197;53.110;8.468;2023-06-22T01:50:20;21.20;;;19.00;;
22064;SDS011;11197;53.110;8.468;2023-06-22T01:52:46;21.45;;;19.15;;
22064;SDS011;11197;53.110;8.468;2023-06-22T01:55:12;20.23;;;18.02;;
22064;SDS011;11197;53.110;8.468;2023-06-22T01:57:40;17.85;;;15.55;;
22064;SDS011;11197;53.110;8.468;2023-06-22T02:00:11;18.17;;;16.27;;
22064;SDS011;11197;53.110;8.468;2023-06-22T02:02:54;15.48;;;13.85;;
22064;SDS011;11197;53.110;8.468;2023-06-22T02:05:25;18.83;;;16.60;;
22064;SDS011;11197;53.110;8.468;2023-06-22T02:08:00;21.00;;;18.77;;
22064;SDS011;11197;53.110;8.468;2023-06-22T02:10:32;21.13;;;17.92;;
22064;SDS011;11197;53.110;8.468;2023-06-22T02:13:00;18.95;;;16.90;;
22064;SDS011;11197;53.110;8.468;2023-06-22T02:15:27;15.90;;;13.68;;
22064;SDS011;11197;53.110;8.468;2023-06-22T02:17:54;22.20;;;18.58;;
22064;SDS011;11197;53.110;8.468;2023-06-22T02:20:21;20.02;;;17.92;;
22064;SDS011;11197;53.110;8.468;2023-06-22T02:22:48;19.08;;;17.00;;
22064;SDS011;11197;53.110;8.468;2023-06-22T02:25:14;19.95;;;16.98;;
22064;SDS011;11197;53.110;8.468;2023-06-22T02:27:40;20.80;;;18.60;;
22064;SDS011;11197;53.110;8.468;2023-06-22T02:30:07;20.67;;;17.88;;
22064;SDS011;11197;53.110;8.468;2023-06-22T02:32:33;20.98;;;18.75;;
22064;SDS011;11197;53.110;8.468;2023-06-22T02:34:59;16.88;;;15.07;;
22064;SDS011;11197;53.110;8.468;2023-06-22T02:37:25;22.20;;;19.48;;
22064;SDS011;11197;53.110;8.468;2023-06-22T02:42:21;18.80;;;16.15;;
22064;SDS011;11197;53.110;8.468;2023-06-22T02:44:47;21.70;;;19.40;;
22064;SDS011;11197;53.110;8.468;2023-06-22T02:47:13;20.45;;;18.25;;
22064;SDS011;11197;53.110;8.468;2023-06-22T02:49:39;23.38;;;20.88;;
22064;SDS011;11197;53.110;8.468;2023-06-22T02:52:05;21.10;;;18.90;;
22064;SDS011;11197;53.110;8.468;2023-06-22T02:54:31;23.50;;;21.10;;
22064;SDS011;11197;53.110;8.468;2023-06-22T02:56:58;22.08;;;19.67;;
22064;SDS011;11197;53.110;8.468;2023-06-22T02:59:28;22.60;;;20.20;;
22064;SDS011;11197;53.110;8.468;2023-06-22T03:02:00;21.63;;;19.35;;
22064;SDS011;11197;53.110;8.468;2023-06-22T03:04:30;23.40;;;20.53;;
22064;SDS011;11197;53.110;8.468;2023-06-22T03:06:56;21.88;;;19.45;;
22064;SDS011;11197;53.110;8.468;2023-06-22T03:09:25;21.88;;;19.55;;
22064;SDS011;11197;53.110;8.468;2023-06-22T03:11:51;24.33;;;21.73;;
22064;SDS011;11197;53.110;8.468;2023-06-22T03:14:18;24.85;;;22.25;;
22064;SDS011;11197;53.110;8.468;2023-06-22T03:16:43;23.83;;;21.27;;
22064;SDS011;11197;53.110;8.468;2023-06-22T03:19:10;23.45;;;21.02;;
22064;SDS011;11197;53.110;8.468;2023-06-22T03:21:37;22.63;;;19.00;;
22064;SDS011;11197;53.110;8.468;2023-06-22T03:24:06;20.83;;;18.63;;
22064;SDS011;11197;53.110;8.468;2023-06-22T03:26:33;22.50;;;20.10;;
22064;SDS011;11197;53.110;8.468;2023-06-22T03:28:59;21.65;;;19.35;;
22064;SDS011;11197;53.110;8.468;2023-06-22T03:31:28;23.77;;;21.27;;
22064;SDS011;11197;53.110;8.468;2023-06-22T03:33:53;23.20;;;20.80;;
22064;SDS011;11197;53.110;8.468;2023-06-22T03:36:22;26.08;;;21.65;;
22064;SDS011;11197;53.110;8.468;2023-06-22T03:38:48;25.33;;;22.58;;
22064;SDS011;11197;53.110;8.468;2023-06-22T03:41:15;21.30;;;19.08;;
22064;SDS011;11197;53.110;8.468;2023-06-22T03:43:42;23.38;;;20.83;;
22064;SDS011;11197;53.110;8.468;2023-06-22T03:46:08;23.27;;;20.77;;
22064;SDS011;11197;53.110;8.468;2023-06-22T03:48:33;25.15;;;22.50;;
22064;SDS011;11197;53.110;8.468;2023-06-22T03:50:59;13.75;;;12.32;;
22064;SDS011;11197;53.110;8.468;2023-06-22T03:53:26;18.25;;;15.57;;
22064;SDS011;11197;53.110;8.468;2023-06-22T03:55:52;17.75;;;14.70;;
22064;SDS011;11197;53.110;8.468;2023-06-22T03:58:18;16.75;;;15.02;;
22064;SDS011;11197;53.110;8.468;2023-06-22T04:00:48;18.95;;;15.70;;
22064;SDS011;11197;53.110;8.468;2023-06-22T04:03:14;18.30;;;15.73;;
22064;SDS011;11197;53.110;8.468;2023-06-22T04:05:41;17.52;;;15.70;;
22064;SDS011;11197;53.110;8.468;2023-06-22T04:08:07;18.20;;;15.57;;
22064;SDS011;11197;53.110;8.468;2023-06-22T04:10:33;17.35;;;15.48;;
22064;SDS011;11197;53.110;8.468;2023-06-22T04:12:59;17.42;;;14.05;;
22064;SDS011;11197;53.110;8.468;2023-06-22T04:15:25;19.17;;;15.43;;
22064;SDS011;11197;53.110;8.468;2023-06-22T04:17:51;16.33;;;14.00;;
22064;SDS011;11197;53.110;8.468;2023-06-22T04:20:16;15.95;;;13.85;;
22064;SDS011;11197;53.110;8.468;2023-06-22T04:22:42;17.67;;;14.23;;
22064;SDS011;11197;53.110;8.468;2023-06-22T04:25:08;17.67;;;15.77;;
22064;SDS011;11197;53.110;8.468;2023-06-22T04:27:33;15.55;;;13.95;;
22064;SDS011;11197;53.110;8.468;2023-06-22T04:30:05;16.25;;;14.55;;
22064;SDS011;11197;53.110;8.468;2023-06-22T04:32:48;16.08;;;14.25;;
22064;SDS011;11197;53.110;8.468;2023-06-22T04:35:23;16.75;;;14.55;;
22064;SDS011;11197;53.110;8.468;2023-06-22T04:37:49;17.63;;;14.70;;
22064;SDS011;11197;53.110;8.468;2023-06-22T04:40:15;16.30;;;14.60;;
22064;SDS011;11197;53.110;8.468;2023-06-22T04:42:41;16.15;;;13.35;;
22064;SDS011;11197;53.110;8.468;2023-06-22T04:45:17;14.85;;;13.27;;
22064;SDS011;11197;53.110;8.468;2023-06-22T04:47:43;19.10;;;17.10;;
22064;SDS011;11197;53.110;8.468;2023-06-22T04:50:10;16.38;;;14.73;;
22064;SDS011;11197;53.110;8.468;2023-06-22T04:52:36;21.20;;;18.33;;
22064;SDS011;11197;53.110;8.468;2023-06-22T04:55:02;21.13;;;18.77;;
22064;SDS011;11197;53.110;8.468;2023-06-22T04:57:28;21.80;;;19.50;;
22064;SDS011;11197;53.110;8.468;2023-06-22T04:59:58;19.55;;;17.42;;
22064;SDS011;11197;53.110;8.468;2023-06-22T05:02:36;21.58;;;18.75;;
22064;SDS011;11197;53.110;8.468;2023-06-22T05:05:02;21.55;;;18.58;;
22064;SDS011;11197;53.110;8.468;2023-06-22T05:07:35;18.77;;;16.83;;
22064;SDS011;11197;53.110;8.468;2023-06-22T05:10:04;19.60;;;17.48;;
22064;SDS011;11197;53.110;8.468;2023-06-22T05:12:30;21.17;;;18.70;;
22064;SDS011;11197;53.110;8.468;2023-06-22T05:14:56;19.50;;;17.40;;
22064;SDS011;11197;53.110;8.468;2023-06-22T05:17:22;18.65;;;16.67;;
22064;SDS011;11197;53.110;8.468;2023-06-22T05:19:48;20.88;;;17.60;;
22064;SDS011;11197;53.110;8.468;2023-06-22T05:22:17;22.35;;;18.35;;
22064;SDS011;11197;53.110;8.468;2023-06-22T05:24:43;20.25;;;18.15;;
22064;SDS011;11197;53.110;8.468;2023-06-22T05:27:12;20.17;;;16.70;;
22064;SDS011;11197;53.110;8.468;2023-06-22T05:29:38;19.73;;;17.08;;
22064;SDS011;11197;53.110;8.468;2023-06-22T05:32:04;20.65;;;18.45;;
22064;SDS011;11197;53.110;8.468;2023-06-22T05:34:30;21.85;;;17.80;;
22064;SDS011;11197;53.110;8.468;2023-06-22T05:36:56;19.23;;;16.65;;
22064;SDS011;11197;53.110;8.468;2023-06-22T05:39:24;21.20;;;17.40;;
22064;SDS011;11197;53.110;8.468;2023-06-22T05:41:50;18.70;;;15.73;;
22064;SDS011;11197;53.110;8.468;2023-06-22T05:44:15;18.10;;;15.52;;
22064;SDS011;11197;53.110;8.468;2023-06-22T05:46:42;19.00;;;16.45;;
22064;SDS011;11197;53.110;8.468;2023-06-22T05:49:09;18.65;;;16.38;;
22064;SDS011;11197;53.110;8.468;2023-06-22T05:51:36;18.60;;;16.63;;
22064;SDS011;11197;53.110;8.468;2023-06-22T05:54:02;19.73;;;16.77;;
22064;SDS011;11197;53.110;8.468;2023-06-22T05:56:27;19.23;;;15.70;;
22064;SDS011;11197;53.110;8.468;2023-06-22T05:58:53;16.52;;;14.75;;
22064;SDS011;11197;53.110;8.468;2023-06-22T06:01:19;17.80;;;14.48;;
22064;SDS011;11197;53.110;8.468;2023-06-22T06:03:45;19.42;;;15.57;;
22064;SDS011;11197;53.110;8.468;2023-06-22T06:06:11;17.65;;;15.02;;
22064;SDS011;11197;53.110;8.468;2023-06-22T06:08:37;19.15;;;15.40;;
22064;SDS011;11197;53.110;8.468;2023-06-22T06:11:04;16.90;;;13.90;;
22064;SDS011;11197;53.110;8.468;2023-06-22T06:13:29;17.98;;;14.07;;
22064;SDS011;11197;53.110;8.468;2023-06-22T06:15:55;17.77;;;14.68;;
22064;SDS011;11197;53.110;8.468;2023-06-22T06:18:22;16.98;;;13.77;;
22064;SDS011;11197;53.110;8.468;2023-06-22T06:20:48;19.05;;;14.55;;
22064;SDS011;11197;53.110;8.468;2023-06-22T06:23:14;15.73;;;13.20;;
22064;SDS011;11197;53.110;8.468;2023-06-22T06:25:39;16.73;;;13.77;;
22064;SDS011;11197;53.110;8.468;2023-06-22T06:28:05;17.23;;;13.25;;
22064;SDS011;11197;53.110;8.468;2023-06-22T06:30:31;15.23;;;12.50;;
22064;SDS011;11197;53.110;8.468;2023-06-22T06:32:57;15.52;;;12.65;;
22064;SDS011;11197;53.110;8.468;2023-06-22T06:35:23;13.85;;;11.63;;
22064;SDS011;11197;53.110;8.468;2023-06-22T06:37:49;15.10;;;12.02;;
22064;SDS011;11197;53.110;8.468;2023-06-22T06:40:16;15.90;;;11.75;;
22064;SDS011;11197;53.110;8.468;2023-06-22T06:42:46;12.57;;;10.43;;
22064;SDS011;11197;53.110;8.468;2023-06-22T06:45:16;14.38;;;9.95;;
22064;SDS011;11197;53.110;8.468;2023-06-22T06:47:42;12.35;;;9.73;;
22064;SDS011;11197;53.110;8.468;2023-06-22T06:50:08;13.05;;;9.88;;
22064;SDS011;11197;53.110;8.468;2023-06-22T06:52:35;13.48;;;8.98;;
22064;SDS011;11197;53.110;8.468;2023-06-22T06:55:01;13.48;;;9.73;;
22064;SDS011;11197;53.110;8.468;2023-06-22T06:57:29;11.93;;;8.75;;
22064;SDS011;11197;53.110;8.468;2023-06-22T06:59:58;13.65;;;8.43;;
22064;SDS011;11197;53.110;8.468;2023-06-22T07:02:23;12.73;;;8.93;;
22064;SDS011;11197;53.110;8.468;2023-06-22T07:04:51;12.43;;;8.88;;
22064;SDS011;11197;53.110;8.468;2023-06-22T07:07:16;12.25;;;8.93;;
22064;SDS011;11197;53.110;8.468;2023-06-22T07:09:42;12.07;;;9.30;;
22064;SDS011;11197;53.110;8.468;2023-06-22T07:12:08;12.98;;;9.70;;
22064;SDS011;11197;53.110;8.468;2023-06-22T07:14:34;15.40;;;11.00;;
22064;SDS011;11197;53.110;8.468;2023-06-22T07:16:59;13.00;;;9.55;;
22064;SDS011;11197;53.110;8.468;2023-06-22T07:19:25;14.25;;;10.43;;
22064;SDS011;11197;53.110;8.468;2023-06-22T07:21:52;12.35;;;9.82;;
22064;SDS011;11197;53.110;8.468;2023-06-22T07:24:19;16.33;;;9.93;;
22064;SDS011;11197;53.110;8.468;2023-06-22T07:26:46;11.80;;;9.40;;
22064;SDS011;11197;53.110;8.468;2023-06-22T07:29:13;10.45;;;8.45;;
22064;SDS011;11197;53.110;8.468;2023-06-22T07:31:39;11.55;;;8.63;;
22064;SDS011;11197;53.110;8.468;2023-06-22T07:34:06;11.70;;;8.48;;
22064;SDS011;11197;53.110;8.468;2023-06-22T07:36:32;11.35;;;8.27;;
22064;SDS011;11197;53.110;8.468;2023-06-22T07:38:57;13.02;;;8.48;;
22064;SDS011;11197;53.110;8.468;2023-06-22T07:41:23;10.40;;;7.75;;
22064;SDS011;11197;53.110;8.468;2023-06-22T07:43:49;10.20;;;7.18;;
22064;SDS011;11197;53.110;8.468;2023-06-22T07:46:15;9.45;;;6.70;;
22064;SDS011;11197;53.110;8.468;2023-06-22T07:48:40;10.18;;;7.32;;
22064;SDS011;11197;53.110;8.468;2023-06-22T07:51:07;9.18;;;7.25;;
22064;SDS011;11197;53.110;8.468;2023-06-22T07:53:32;10.32;;;6.28;;
22064;SDS011;11197;53.110;8.468;2023-06-22T07:55:58;8.93;;;6.47;;
22064;SDS011;11197;53.110;8.468;2023-06-22T07:58:24;9.52;;;6.53;;
22064;SDS011;11197;53.110;8.468;2023-06-22T08:00:49;8.30;;;5.82;;
22064;SDS011;11197;53.110;8.468;2023-06-22T08:03:15;7.20;;;4.72;;
22064;SDS011;11197;53.110;8.468;2023-06-22T08:05:41;6.45;;;4.90;;
22064;SDS011;11197;53.110;8.468;2023-06-22T08:08:07;7.10;;;4.68;;
22064;SDS011;11197;53.110;8.468;2023-06-22T08:10:32;5.55;;;3.53;;
22064;SDS011;11197;53.110;8.468;2023-06-22T08:12:58;7.35;;;4.07;;
22064;SDS011;11197;53.110;8.468;2023-06-22T08:15:25;4.60;;;3.50;;
22064;SDS011;11197;53.110;8.468;2023-06-22T08:17:51;5.85;;;4.20;;
22064;SDS011;11197;53.110;8.468;2023-06-22T08:20:17;6.03;;;3.72;;
22064;SDS011;11197;53.110;8.468;2023-06-22T08:22:43;6.15;;;3.90;;
22064;SDS011;11197;53.110;8.468;2023-06-22T08:25:09;5.43;;;3.28;;
22064;SDS011;11197;53.110;8.468;2023-06-22T08:27:35;5.45;;;3.40;;
22064;SDS011;11197;53.110;8.468;2023-06-22T08:30:01;5.35;;;3.47;;
22064;SDS011;11197;53.110;8.468;2023-06-22T08:32:28;5.60;;;3.28;;
22064;SDS011;11197;53.110;8.468;2023-06-22T08:34:54;6.03;;;3.10;;
22064;SDS011;11197;53.110;8.468;2023-06-22T08:37:21;5.32;;;3.55;;
22064;SDS011;11197;53.110;8.468;2023-06-22T08:39:59;5.47;;;3.75;;
22064;SDS011;11197;53.110;8.468;2023-06-22T08:42:26;7.80;;;3.58;;
22064;SDS011;11197;53.110;8.468;2023-06-22T08:44:52;7.28;;;3.53;;
22064;SDS011;11197;53.110;8.468;2023-06-22T08:47:18;7.68;;;3.53;;
22064;SDS011;11197;53.110;8.468;2023-06-22T08:49:45;5.07;;;3.80;;
22064;SDS011;11197;53.110;8.468;2023-06-22T08:52:10;8.45;;;4.20;;
22064;SDS011;11197;53.110;8.468;2023-06-22T08:54:36;5.38;;;3.80;;
22064;SDS011;11197;53.110;8.468;2023-06-22T08:57:02;7.40;;;4.10;;
22064;SDS011;11197;53.110;8.468;2023-06-22T08:59:28;7.45;;;3.83;;
22064;SDS011;11197;53.110;8.468;2023-06-22T09:01:53;6.40;;;3.50;;
22064;SDS011;11197;53.110;8.468;2023-06-22T09:04:19;6.47;;;3.70;;
22064;SDS011;11197;53.110;8.468;2023-06-22T09:06:47;6.38;;;3.20;;
22064;SDS011;11197;53.110;8.468;2023-06-22T09:09:15;6.30;;;3.97;;
22064;SDS011;11197;53.110;8.468;2023-06-22T09:11:41;5.95;;;3.80;;
22064;SDS011;11197;53.110;8.468;2023-06-22T09:14:08;6.38;;;3.40;;
22064;SDS011;11197;53.110;8.468;2023-06-22T09:16:34;5.50;;;3.70;;
22064;SDS011;11197;53.110;8.468;2023-06-22T09:19:00;5.07;;;3.70;;
22064;SDS011;11197;53.110;8.468;2023-06-22T09:21:25;6.10;;;3.70;;
22064;SDS011;11197;53.110;8.468;2023-06-22T09:23:51;8.52;;;4.65;;
22064;SDS011;11197;53.110;8.468;2023-06-22T09:26:17;5.57;;;3.85;;
22064;SDS011;11197;53.110;8.468;2023-06-22T09:28:43;8.52;;;4.38;;
22064;SDS011;11197;53.110;8.468;2023-06-22T09:31:10;6.68;;;4.43;;
22064;SDS011;11197;53.110;8.468;2023-06-22T09:33:36;5.70;;;4.07;;
22064;SDS011;11197;53.110;8.468;2023-06-22T09:36:04;7.85;;;5.22;;
22064;SDS011;11197;53.110;8.468;2023-06-22T09:38:41;6.97;;;4.90;;
22064;SDS011;11197;53.110;8.468;2023-06-22T09:41:06;7.22;;;4.55;;
22064;SDS011;11197;53.110;8.468;2023-06-22T09:43:32;7.55;;;5.53;;
22064;SDS011;11197;53.110;8.468;2023-06-22T09:46:01;8.65;;;6.13;;
22064;SDS011;11197;53.110;8.468;2023-06-22T09:48:27;9.68;;;5.88;;
22064;SDS011;11197;53.110;8.468;2023-06-22T09:50:55;9.50;;;6.30;;
22064;SDS011;11197;53.110;8.468;2023-06-22T09:53:21;9.95;;;6.57;;
22064;SDS011;11197;53.110;8.468;2023-06-22T09:55:47;11.15;;;6.13;;
22064;SDS011;11197;53.110;8.468;2023-06-22T09:58:12;11.15;;;6.63;;
22064;SDS011;11197;53.110;8.468;2023-06-22T10:00:38;7.00;;;5.93;;
22064;SDS011;11197;53.110;8.468;2023-06-22T10:03:04;7.38;;;5.70;;
22064;SDS011;11197;53.110;8.468;2023-06-22T10:05:29;8.55;;;5.78;;
22064;SDS011;11197;53.110;8.468;2023-06-22T10:07:55;11.65;;;6.10;;
22064;SDS011;11197;53.110;8.468;2023-06-22T10:10:21;10.25;;;6.68;;
22064;SDS011;11197;53.110;8.468;2023-06-22T10:12:47;9.93;;;6.45;;
22064;SDS011;11197;53.110;8.468;2023-06-22T10:15:19;9.25;;;5.78;;
22064;SDS011;11197;53.110;8.468;2023-06-22T10:17:46;8.43;;;6.82;;
22064;SDS011;11197;53.110;8.468;2023-06-22T10:20:12;8.65;;;6.47;;
22064;SDS011;11197;53.110;8.468;2023-06-22T10:22:41;9.38;;;6.70;;
22064;SDS011;11197;53.110;8.468;2023-06-22T10:25:08;11.15;;;6.78;;
22064;SDS011;11197;53.110;8.468;2023-06-22T10:27:35;10.68;;;6.07;;
22064;SDS011;11197;53.110;8.468;2023-06-22T10:30:01;11.27;;;7.65;;
22064;SDS011;11197;53.110;8.468;2023-06-22T10:32:27;8.25;;;6.43;;
22064;SDS011;11197;53.110;8.468;2023-06-22T10:34:55;7.10;;;5.50;;
22064;SDS011;11197;53.110;8.468;2023-06-22T10:37:21;9.48;;;6.10;;
22064;SDS011;11197;53.110;8.468;2023-06-22T10:39:47;8.57;;;6.43;;
22064;SDS011;11197;53.110;8.468;2023-06-22T10:42:13;10.77;;;6.28;;
22064;SDS011;11197;53.110;8.468;2023-06-22T10:44:39;9.50;;;6.47;;
22064;SDS011;11197;53.110;8.468;2023-06-22T10:47:06;11.95;;;6.63;;
22064;SDS011;11197;53.110;8.468;2023-06-22T10:49:32;10.93;;;6.60;;
22064;SDS011;11197;53.110;8.468;2023-06-22T10:51:57;10.55;;;6.95;;
22064;SDS011;11197;53.110;8.468;2023-06-22T10:54:23;7.97;;;6.28;;
22064;SDS011;11197;53.110;8.468;2023-06-22T10:56:49;7.72;;;6.75;;
22064;SDS011;11197;53.110;8.468;2023-06-22T10:59:15;8.52;;;6.38;;
22064;SDS011;11197;53.110;8.468;2023-06-22T11:01:41;9.40;;;6.32;;
22064;SDS011;11197;53.110;8.468;2023-06-22T11:04:07;8.68;;;6.07;;
22064;SDS011;11197;53.110;8.468;2023-06-22T11:06:33;8.45;;;5.80;;
22064;SDS011;11197;53.110;8.468;2023-06-22T11:08:58;11.02;;;6.38;;
22064;SDS011;11197;53.110;8.468;2023-06-22T11:11:25;10.32;;;6.75;;
22064;SDS011;11197;53.110;8.468;2023-06-22T11:13:52;8.60;;;6.30;;
22064;SDS011;11197;53.110;8.468;2023-06-22T11:16:18;7.95;;;6.60;;
22064;SDS011;11197;53.110;8.468;2023-06-22T11:18:43;9.35;;;6.55;;
22064;SDS011;11197;53.110;8.468;2023-06-22T11:21:09;9.55;;;6.88;;
22064;SDS011;11197;53.110;8.468;2023-06-22T11:23:35;10.25;;;6.70;;
22064;SDS011;11197;53.110;8.468;2023-06-22T11:26:00;10.18;;;7.38;;
22064;SDS011;11197;53.110;8.468;2023-06-22T11:28:27;12.55;;;7.40;;
22064;SDS011;11197;53.110;8.468;2023-06-22T11:30:52;10.38;;;7.10;;
22064;SDS011;11197;53.110;8.468;2023-06-22T11:33:18;9.95;;;6.90;;
22064;SDS011;11197;53.110;8.468;2023-06-22T11:35:44;11.95;;;7.40;;
22064;SDS011;11197;53.110;8.468;2023-06-22T11:38:10;10.00;;;7.53;;
22064;SDS011;11197;53.110;8.468;2023-06-22T11:40:35;10.50;;;7.55;;
22064;SDS011;11197;53.110;8.468;2023-06-22T11:43:01;7.65;;;6.70;;
22064;SDS011;11197;53.110;8.468;2023-06-22T11:45:27;7.95;;;6.60;;
22064;SDS011;11197;53.110;8.468;2023-06-22T11:47:53;7.50;;;6.63;;
22064;SDS011;11197;53.110;8.468;2023-06-22T11:50:19;9.10;;;6.85;;
22064;SDS011;11197;53.110;8.468;2023-06-22T11:52:44;8.40;;;7.05;;
22064;SDS011;11197;53.110;8.468;2023-06-22T11:55:10;9.30;;;6.97;;
22064;SDS011;11197;53.110;8.468;2023-06-22T11:57:36;10.85;;;6.93;;
22064;SDS011;11197;53.110;8.468;2023-06-22T12:00:03;8.43;;;6.57;;
22064;SDS011;11197;53.110;8.468;2023-06-22T12:02:41;7.03;;;5.60;;
22064;SDS011;11197;53.110;8.468;2023-06-22T12:05:06;9.05;;;6.32;;
22064;SDS011;11197;53.110;8.468;2023-06-22T12:07:33;9.65;;;6.57;;
22064;SDS011;11197;53.110;8.468;2023-06-22T12:09:58;7.47;;;5.53;;
22064;SDS011;11197;53.110;8.468;2023-06-22T12:12:24;10.52;;;6.30;;
22064;SDS011;11197;53.110;8.468;2023-06-22T12:14:50;8.23;;;5.85;;
22064;SDS011;11197;53.110;8.468;2023-06-22T12:17:15;13.65;;;6.90;;
22064;SDS011;11197;53.110;8.468;2023-06-22T12:19:41;12.32;;;6.32;;
22064;SDS011;11197;53.110;8.468;2023-06-22T12:22:07;9.85;;;6.20;;
22064;SDS011;11197;53.110;8.468;2023-06-22T12:24:32;11.02;;;6.28;;
22064;SDS011;11197;53.110;8.468;2023-06-22T12:26:58;10.35;;;6.82;;
22064;SDS011;11197;53.110;8.468;2023-06-22T12:29:24;8.13;;;6.15;;
22064;SDS011;11197;53.110;8.468;2023-06-22T12:31:49;6.93;;;5.40;;
22064;SDS011;11197;53.110;8.468;2023-06-22T12:34:15;7.60;;;5.65;;
22064;SDS011;11197;53.110;8.468;2023-06-22T12:36:41;8.52;;;6.05;;
22064;SDS011;11197;53.110;8.468;2023-06-22T12:39:07;7.10;;;5.78;;
22064;SDS011;11197;53.110;8.468;2023-06-22T12:41:32;7.10;;;5.55;;
22064;SDS011;11197;53.110;8.468;2023-06-22T12:43:58;7.63;;;5.97;;
22064;SDS011;11197;53.110;8.468;2023-06-22T12:46:24;6.63;;;5.55;;
22064;SDS011;11197;53.110;8.468;2023-06-22T12:48:49;6.72;;;5.30;;
22064;SDS011;11197;53.110;8.468;2023-06-22T12:51:21;6.47;;;5.15;;
22064;SDS011;11197;53.110;8.468;2023-06-22T12:53:48;7.45;;;5.65;;
22064;SDS011;11197;53.110;8.468;2023-06-22T12:56:14;9.18;;;5.90;;
22064;SDS011;11197;53.110;8.468;2023-06-22T12:58:39;6.50;;;5.72;;
22064;SDS011;11197;53.110;8.468;2023-06-22T13:01:05;6.22;;;5.60;;
22064;SDS011;11197;53.110;8.468;2023-06-22T13:03:31;7.15;;;5.68;;
22064;SDS011;11197;53.110;8.468;2023-06-22T13:05:56;8.40;;;5.38;;
22064;SDS011;11197;53.110;8.468;2023-06-22T13:08:22;8.00;;;5.50;;
22064;SDS011;11197;53.110;8.468;2023-06-22T13:10:48;7.90;;;5.47;;
22064;SDS011;11197;53.110;8.468;2023-06-22T13:13:13;6.78;;;5.22;;
22064;SDS011;11197;53.110;8.468;2023-06-22T13:15:39;7.20;;;5.65;;
22064;SDS011;11197;53.110;8.468;2023-06-22T13:18:05;7.78;;;6.07;;
22064;SDS011;11197;53.110;8.468;2023-06-22T13:20:30;8.57;;;6.50;;
22064;SDS011;11197;53.110;8.468;2023-06-22T13:22:56;8.02;;;6.80;;
22064;SDS011;11197;53.110;8.468;2023-06-22T13:25:22;6.47;;;5.72;;
22064;SDS011;11197;53.110;8.468;2023-06-22T13:27:51;7.30;;;6.15;;
22064;SDS011;11197;53.110;8.468;2023-06-22T13:30:17;8.45;;;6.47;;
22064;SDS011;11197;53.110;8.468;2023-06-22T13:32:43;8.13;;;6.28;;
22064;SDS011;11197;53.110;8.468;2023-06-22T13:35:09;9.45;;;6.20;;
22064;SDS011;11197;53.110;8.468;2023-06-22T13:37:35;9.02;;;5.85;;
22064;SDS011;11197;53.110;8.468;2023-06-22T13:40:01;6.90;;;5.18;;
22064;SDS011;11197;53.110;8.468;2023-06-22T13:42:28;8.73;;;5.30;;
22064;SDS011;11197;53.110;8.468;2023-06-22T13:44:54;9.50;;;5.90;;
22064;SDS011;11197;53.110;8.468;2023-06-22T13:47:20;6.90;;;5.85;;
22064;SDS011;11197;53.110;8.468;2023-06-22T13:49:46;6.18;;;4.97;;
22064;SDS011;11197;53.110;8.468;2023-06-22T13:52:11;9.13;;;5.75;;
22064;SDS011;11197;53.110;8.468;2023-06-22T13:54:38;8.52;;;5.03;;
22064;SDS011;11197;53.110;8.468;2023-06-22T13:57:03;7.35;;;4.90;;
22064;SDS011;11197;53.110;8.468;2023-06-22T13:59:29;5.78;;;4.85;;
22064;SDS011;11197;53.110;8.468;2023-06-22T14:01:55;7.35;;;5.30;;
22064;SDS011;11197;53.110;8.468;2023-06-22T14:04:24;6.75;;;5.07;;
22064;SDS011;11197;53.110;8.468;2023-06-22T14:06:50;7.57;;;5.40;;
22064;SDS011;11197;53.110;8.468;2023-06-22T14:09:15;7.90;;;5.72;;
22064;SDS011;11197;53.110;8.468;2023-06-22T14:11:41;7.63;;;5.78;;
22064;SDS011;11197;53.110;8.468;2023-06-22T14:14:07;8.02;;;6.18;;
22064;SDS011;11197;53.110;8.468;2023-06-22T14:16:33;7.40;;;5.82;;
22064;SDS011;11197;53.110;8.468;2023-06-22T14:18:58;8.65;;;6.05;;
22064;SDS011;11197;53.110;8.468;2023-06-22T14:21:25;7.63;;;5.70;;
22064;SDS011;11197;53.110;8.468;2023-06-22T14:23:51;7.57;;;5.65;;
22064;SDS011;11197;53.110;8.468;2023-06-22T14:26:17;6.70;;;5.63;;
22064;SDS011;11197;53.110;8.468;2023-06-22T14:28:43;7.35;;;5.82;;
22064;SDS011;11197;53.110;8.468;2023-06-22T14:31:17;7.68;;;6.25;;
22064;SDS011;11197;53.110;8.468;2023-06-22T14:33:45;8.55;;;5.55;;
22064;SDS011;11197;53.110;8.468;2023-06-22T14:36:12;8.07;;;5.85;;
22064;SDS011;11197;53.110;8.468;2023-06-22T14:38:38;8.63;;;6.30;;